Terminal Aerodrome Forecast
Issued by NWS

Home | Current Version | Previous Version | Text Only | Print | Product List | Glossary On
Versions: 1 2 3 4 5 6 7 8 9 10 11 12 13 14 15 16 17 18 19 20 21 22 23
000
FTUS43 KEAX 300044 AAA
TAFSTJ
TAF AMD
KSTJ 300044Z 3001/3024 36007KT P6SM BKN035
     FM300400 04003KT 5SM BR SCT025
     FM300900 05002KT 1SM BR OVC005
      TEMPO 3010/3013 1/2SM FG BKN002
     FM301500 05006KT P6SM BKN015
     FM301800 13007KT P6SM SCT025 BKN035=

USA.gov is the U.S. government's official web portal to all federal, state and local government web resources and services.